Terminal Aerodrome Forecast
Issued by NWS Wilmington, OH

Home | Current Version | Previous Version | Text Only | Print | Product List | Glossary On
Versions: 1 2 3 4 5 6 7 8 9 10 11 12 13 14 15 16 17 18 19 20 21 22 23 24 25 26 27 28 29 30 31
000
FTUS41 KILN 312331
TAFCVG
TAF
KCVG 312331Z 0100/0206 34007KT P6SM VCSH FEW050 OVC120
     FM010100 36007KT P6SM OVC120
     FM010800 01008KT P6SM SKC
     FM011600 01013KT P6SM FEW040
     FM012300 02008KT P6SM SKC=

USA.gov is the U.S. government's official web portal to all federal, state and local government web resources and services.